Time,TemperatureF,DewpointF,PressureIn,WindDirection,WindDirectionDegrees,WindSpeedMPH,WindSpeedGustMPH,Humidity,HourlyPrecipIn,Conditions,Clouds,dailyrainin,SoftwareType,DateUTC
2013-02-13 00:00:00,41.0,36.5,30.29,ENE,64,0.0,7.0,84,0.00,,,0.00,Wunderground v.1.15,2013-02-13 08:00:00,
2013-02-13 00:05:00,40.9,36.4,30.29,ENE,64,0.0,7.0,84,0.00,,,0.00,Wunderground v.1.15,2013-02-13 08:05:00,
2013-02-13 00:10:00,40.8,36.3,30.29,ENE,64,0.0,7.0,84,0.00,,,0.00,Wunderground v.1.15,2013-02-13 08:10:00,
2013-02-13 00:15:00,40.7,36.5,30.29,ENE,64,0.0,7.0,85,0.00,,,0.00,Wunderground v.1.15,2013-02-13 08:15:00,
2013-02-13 00:20:00,40.6,36.4,30.29,ENE,64,0.0,7.0,85,0.00,,,0.00,Wunderground v.1.15,2013-02-13 08:20:00,
2013-02-13 00:25:00,40.5,36.3,30.29,ENE,64,0.0,7.0,85,0.00,,,0.00,Wunderground v.1.15,2013-02-13 08:25:00,
2013-02-13 00:35:00,40.2,36.3,30.29,ENE,64,0.0,7.0,86,0.00,,,0.00,Wunderground v.1.15,2013-02-13 08:35:00,
2013-02-13 00:40:00,40.2,36.3,30.29,ENE,64,0.0,7.0,86,0.00,,,0.00,Wunderground v.1.15,2013-02-13 08:40:00,
2013-02-13 00:45:00,40.1,36.2,30.29,ENE,64,0.0,7.0,86,0.00,,,0.00,Wunderground v.1.15,2013-02-13 08:45:00,
2013-02-13 00:50:00,40.1,36.2,30.29,ENE,64,0.0,7.0,86,0.00,,,0.00,Wunderground v.1.15,2013-02-13 08:50:00,
2013-02-13 00:55:00,40.0,36.2,30.29,ENE,64,0.0,7.0,86,0.00,,,0.00,Wunderground v.1.15,2013-02-13 08:55:00,
2013-02-13 01:05:00,40.2,36.9,30.29,ENE,64,0.0,7.0,88,0.00,,,0.00,Wunderground v.1.15,2013-02-13 09:05:00,
2013-02-13 01:10:00,40.4,37.4,30.29,ENE,64,0.0,7.0,89,0.00,,,0.00,Wunderground v.1.15,2013-02-13 09:10:00,
2013-02-13 01:15:00,40.7,38.0,30.29,ENE,64,0.0,7.0,90,0.00,,,0.00,Wunderground v.1.15,2013-02-13 09:15:00,
2013-02-13 01:20:00,41.0,38.6,30.29,ENE,62,0.0,7.0,91,0.00,,,0.00,Wunderground v.1.15,2013-02-13 09:20:00,
2013-02-13 01:25:00,41.3,38.9,30.29,NE,56,0.0,7.0,91,0.00,,,0.00,Wunderground v.1.15,2013-02-13 09:25:00,
2013-02-13 01:35:00,41.6,39.2,30.29,NE,56,0.0,7.0,91,0.00,,,0.00,Wunderground v.1.15,2013-02-13 09:35:00,
2013-02-13 01:40:00,41.8,39.4,30.29,NE,56,0.0,7.0,91,0.00,,,0.00,Wunderground v.1.15,2013-02-13 09:40:00,
2013-02-13 01:45:00,41.9,39.5,30.29,NE,56,0.0,7.0,91,0.00,,,0.00,Wunderground v.1.15,2013-02-13 09:45:00,
2013-02-13 01:50:00,42.0,39.6,30.29,NE,56,0.0,7.0,91,0.00,,,0.00,Wunderground v.1.15,2013-02-13 09:50:00,
2013-02-13 01:55:00,41.9,39.5,30.29,NE,56,0.0,7.0,91,0.00,,,0.00,Wunderground v.1.15,2013-02-13 09:55:00,
2013-02-13 02:05:00,41.8,39.1,30.29,NE,56,0.0,7.0,90,0.00,,,0.00,Wunderground v.1.15,2013-02-13 10:05:00,
2013-02-13 02:10:00,41.6,38.9,30.29,NE,56,0.0,7.0,90,0.00,,,0.00,Wunderground v.1.15,2013-02-13 10:10:00,
2013-02-13 02:15:00,41.4,38.7,30.29,NE,56,0.0,7.0,90,0.00,,,0.00,Wunderground v.1.15,2013-02-13 10:15:00,
2013-02-13 02:20:00,41.2,38.2,30.29,NE,56,0.0,7.0,89,0.00,,,0.00,Wunderground v.1.15,2013-02-13 10:20:00,
2013-02-13 02:25:00,41.0,38.3,30.29,NE,56,0.0,7.0,90,0.00,,,0.00,Wunderground v.1.15,2013-02-13 10:25:00,
2013-02-13 02:30:00,40.8,38.1,30.29,NE,56,0.0,7.0,90,0.00,,,0.00,Wunderground v.1.15,2013-02-13 10:30:00,
2013-02-13 02:40:00,40.4,37.7,30.29,NE,56,0.0,7.0,90,0.00,,,0.00,Wunderground v.1.15,2013-02-13 10:40:00,
2013-02-13 02:45:00,40.2,37.5,30.29,NE,56,0.0,7.0,90,0.00,,,0.00,Wunderground v.1.15,2013-02-13 10:45:00,
2013-02-13 02:50:00,40.1,37.4,30.29,NE,56,0.0,7.0,90,0.00,,,0.00,Wunderground v.1.15,2013-02-13 10:50:00,
2013-02-13 02:55:00,39.9,37.2,30.28,NE,56,0.0,7.0,90,0.00,,,0.00,Wunderground v.1.15,2013-02-13 10:55:00,
2013-02-13 03:00:00,39.7,37.0,30.28,NE,56,0.0,7.0,90,0.00,,,0.00,Wunderground v.1.15,2013-02-13 11:00:00,
2013-02-13 03:10:00,39.5,37.1,30.28,NE,56,0.0,7.0,91,0.00,,,0.00,Wunderground v.1.15,2013-02-13 11:10:00,
2013-02-13 03:15:00,39.4,37.0,30.28,NE,56,0.0,7.0,91,0.00,,,0.00,Wunderground v.1.15,2013-02-13 11:15:00,
2013-02-13 03:20:00,39.3,36.9,30.28,NE,56,0.0,7.0,91,0.00,,,0.00,Wunderground v.1.15,2013-02-13 11:20:00,
2013-02-13 03:25:00,39.2,36.8,30.27,NE,56,0.0,7.0,91,0.00,,,0.00,Wunderground v.1.15,2013-02-13 11:25:00,
2013-02-13 03:30:00,39.1,36.7,30.28,NE,56,0.0,7.0,91,0.00,,,0.00,Wunderground v.1.15,2013-02-13 11:30:00,
2013-02-13 03:40:00,38.9,36.5,30.27,NE,56,0.0,7.0,91,0.00,,,0.00,Wunderground v.1.15,2013-02-13 11:40:00,
2013-02-13 03:45:00,38.9,36.5,30.27,NE,56,0.0,7.0,91,0.00,,,0.00,Wunderground v.1.15,2013-02-13 11:45:00,
2013-02-13 03:50:00,38.8,36.4,30.27,NE,56,0.0,7.0,91,0.00,,,0.00,Wunderground v.1.15,2013-02-13 11:50:00,
2013-02-13 03:55:00,38.7,36.6,30.27,NE,56,0.0,7.0,92,0.00,,,0.00,Wunderground v.1.15,2013-02-13 11:55:00,
2013-02-13 04:00:00,38.8,36.7,30.27,NE,56,0.0,7.0,92,0.00,,,0.00,Wunderground v.1.15,2013-02-13 12:00:00,
2013-02-13 04:10:00,38.8,36.7,30.27,NE,56,0.0,7.0,92,0.00,,,0.00,Wunderground v.1.15,2013-02-13 12:10:00,
2013-02-13 04:15:00,39.0,37.1,30.27,NE,56,0.0,7.0,93,0.00,,,0.00,Wunderground v.1.15,2013-02-13 12:15:00,
2013-02-13 04:20:00,39.1,37.2,30.27,NE,56,0.0,7.0,93,0.00,,,0.00,Wunderground v.1.15,2013-02-13 12:20:00,
2013-02-13 04:25:00,39.1,37.2,30.27,NE,56,0.0,7.0,93,0.00,,,0.00,Wunderground v.1.15,2013-02-13 12:25:00,
2013-02-13 04:30:00,39.3,37.4,30.27,NE,56,0.0,7.0,93,0.00,,,0.00,Wunderground v.1.15,2013-02-13 12:30:00,
2013-02-13 04:35:00,39.5,37.9,30.27,NE,56,0.0,7.0,94,0.00,,,0.00,Wunderground v.1.15,2013-02-13 12:35:00,
2013-02-13 04:40:00,39.4,37.5,30.27,NE,56,0.0,7.0,93,0.00,,,0.00,Wunderground v.1.15,2013-02-13 12:40:00,
2013-02-13 04:45:00,39.4,37.5,30.27,NE,56,0.0,7.0,93,0.00,,,0.00,Wunderground v.1.15,2013-02-13 12:45:00,
2013-02-13 04:50:00,39.4,37.5,30.27,NE,56,0.0,7.0,93,0.00,,,0.00,Wunderground v.1.15,2013-02-13 12:50:00,
2013-02-13 04:55:00,39.3,37.4,30.27,NE,56,0.0,7.0,93,0.00,,,0.00,Wunderground v.1.15,2013-02-13 12:55:00,
2013-02-13 05:00:00,39.3,37.4,30.28,NE,56,0.0,7.0,93,0.00,,,0.00,Wunderground v.1.15,2013-02-13 13:00:00,
2013-02-13 05:05:00,39.2,37.3,30.28,NE,56,0.0,7.0,93,0.00,,,0.00,Wunderground v.1.15,2013-02-13 13:05:00,
2013-02-13 05:15:00,39.1,37.2,30.27,NE,56,0.0,7.0,93,0.00,,,0.00,Wunderground v.1.15,2013-02-13 13:15:00,
2013-02-13 05:20:00,38.9,37.0,30.27,NE,56,0.0,7.0,93,0.00,,,0.00,Wunderground v.1.15,2013-02-13 13:20:00,
2013-02-13 05:25:00,38.9,37.0,30.27,NE,56,0.0,7.0,93,0.00,,,0.00,Wunderground v.1.15,2013-02-13 13:25:00,
2013-02-13 05:30:00,38.9,37.3,30.27,NE,56,0.0,7.0,94,0.00,,,0.00,Wunderground v.1.15,2013-02-13 13:30:00,
2013-02-13 05:35:00,38.8,37.2,30.27,NE,56,0.0,7.0,94,0.00,,,0.00,Wunderground v.1.15,2013-02-13 13:35:00,
2013-02-13 05:40:00,38.8,37.2,30.28,NE,56,0.0,7.0,94,0.00,,,0.00,Wunderground v.1.15,2013-02-13 13:40:00,
2013-02-13 05:45:00,38.7,37.1,30.28,NE,56,0.0,7.0,94,0.00,,,0.00,Wunderground v.1.15,2013-02-13 13:45:00,
2013-02-13 05:50:00,38.6,37.0,30.27,NE,56,0.0,7.0,94,0.00,,,0.00,Wunderground v.1.15,2013-02-13 13:50:00,
2013-02-13 05:55:00,38.6,37.0,30.28,NE,56,0.0,7.0,94,0.00,,,0.00,Wunderground v.1.15,2013-02-13 13:55:00,
2013-02-13 06:00:00,38.6,37.0,30.28,NE,56,0.0,7.0,94,0.00,,,0.00,Wunderground v.1.15,2013-02-13 14:00:00,
2013-02-13 06:05:00,38.5,36.9,30.27,NE,56,0.0,7.0,94,0.00,,,0.00,Wunderground v.1.15,2013-02-13 14:05:00,
2013-02-13 06:15:00,38.2,36.6,30.27,NE,56,0.0,7.0,94,0.00,,,0.00,Wunderground v.1.15,2013-02-13 14:15:00,
2013-02-13 06:20:00,38.2,36.6,30.27,NE,56,0.0,7.0,94,0.00,,,0.00,Wunderground v.1.15,2013-02-13 14:20:00,
2013-02-13 06:25:00,38.1,36.5,30.27,NE,56,0.0,7.0,94,0.00,,,0.00,Wunderground v.1.15,2013-02-13 14:25:00,
2013-02-13 06:30:00,38.2,36.6,30.27,NE,56,0.0,7.0,94,0.00,,,0.00,Wunderground v.1.15,2013-02-13 14:30:00,
2013-02-13 06:35:00,38.2,36.6,30.27,NE,56,0.0,7.0,94,0.00,,,0.00,Wunderground v.1.15,2013-02-13 14:35:00,
2013-02-13 06:40:00,38.3,37.0,30.27,NE,56,0.0,7.0,95,0.00,,,0.00,Wunderground v.1.15,2013-02-13 14:40:00,
2013-02-13 06:45:00,38.5,37.2,30.27,NE,56,0.0,7.0,95,0.00,,,0.00,Wunderground v.1.15,2013-02-13 14:45:00,
2013-02-13 06:55:00,38.8,37.5,30.28,NE,56,0.0,7.0,95,0.00,,,0.00,Wunderground v.1.15,2013-02-13 14:55:00,
2013-02-13 07:00:00,38.7,37.4,30.27,NE,56,0.0,7.0,95,0.00,,,0.00,Wunderground v.1.15,2013-02-13 15:00:00,
2013-02-13 07:05:00,38.6,37.3,30.28,NE,56,0.0,7.0,95,0.00,,,0.00,Wunderground v.1.15,2013-02-13 15:05:00,
2013-02-13 07:10:00,38.6,37.3,30.28,NE,56,0.0,7.0,95,0.00,,,0.00,Wunderground v.1.15,2013-02-13 15:10:00,
2013-02-13 07:20:00,38.7,37.4,30.28,NE,56,0.0,7.0,95,0.00,,,0.00,Wunderground v.1.15,2013-02-13 15:20:00,
2013-02-13 07:25:00,38.7,37.4,30.29,NE,56,0.0,7.0,95,0.00,,,0.00,Wunderground v.1.15,2013-02-13 15:25:00,
2013-02-13 07:30:00,38.7,37.4,30.29,NE,56,0.0,7.0,95,0.00,,,0.00,Wunderground v.1.15,2013-02-13 15:30:00,
2013-02-13 07:35:00,38.7,37.4,30.29,NE,56,0.0,7.0,95,0.00,,,0.00,Wunderground v.1.15,2013-02-13 15:35:00,
2013-02-13 07:40:00,38.8,37.5,30.29,NE,56,0.0,7.0,95,0.00,,,0.00,Wunderground v.1.15,2013-02-13 15:40:00,
2013-02-13 07:50:00,39.0,37.7,30.29,NE,56,0.0,7.0,95,0.00,,,0.00,Wunderground v.1.15,2013-02-13 15:50:00,
2013-02-13 07:55:00,39.3,38.0,30.29,NE,56,0.0,7.0,95,0.00,,,0.00,Wunderground v.1.15,2013-02-13 15:55:00,
2013-02-13 08:00:00,39.6,38.6,30.29,NE,56,0.0,7.0,96,0.00,,,0.00,Wunderground v.1.15,2013-02-13 16:00:00,
2013-02-13 08:05:00,40.0,39.0,30.30,NE,56,0.0,7.0,96,0.00,,,0.00,Wunderground v.1.15,2013-02-13 16:05:00,
2013-02-13 08:10:00,40.6,39.5,30.30,NE,56,0.0,7.0,96,0.00,,,0.00,Wunderground v.1.15,2013-02-13 16:10:00,
2013-02-13 08:20:00,42.7,41.9,30.30,NE,56,0.0,7.0,97,0.00,,,0.00,Wunderground v.1.15,2013-02-13 16:20:00,
2013-02-13 08:25:00,43.5,42.7,30.30,NE,56,0.0,7.0,97,0.00,,,0.00,Wunderground v.1.15,2013-02-13 16:25:00,
2013-02-13 08:30:00,44.6,43.8,30.30,NE,56,0.0,7.0,97,0.00,,,0.00,Wunderground v.1.15,2013-02-13 16:30:00,
2013-02-13 08:35:00,45.8,45.0,30.30,NE,56,0.0,7.0,97,0.00,,,0.00,Wunderground v.1.15,2013-02-13 16:35:00,
2013-02-13 08:40:00,46.7,45.9,30.30,NE,56,0.0,7.0,97,0.00,,,0.00,Wunderground v.1.15,2013-02-13 16:40:00,
2013-02-13 08:45:00,47.6,46.8,30.30,NE,56,0.0,7.0,97,0.00,,,0.00,Wunderground v.1.15,2013-02-13 16:45:00,
2013-02-13 08:50:00,48.3,47.2,30.30,ENE,57,0.0,7.0,96,0.00,,,0.00,Wunderground v.1.15,2013-02-13 16:50:00,
2013-02-13 08:55:00,48.6,46.7,30.29,ENE,57,0.0,7.0,93,0.00,,,0.00,Wunderground v.1.15,2013-02-13 16:55:00,
2013-02-13 09:00:00,49.0,46.5,30.29,ENE,57,0.0,7.0,91,0.00,,,0.00,Wunderground v.1.15,2013-02-13 17:00:00,
2013-02-13 09:05:00,49.4,46.6,30.29,ENE,57,0.0,7.0,90,0.00,,,0.00,Wunderground v.1.15,2013-02-13 17:05:00,
2013-02-13 09:10:00,49.9,46.8,30.29,ENE,58,0.0,7.0,89,0.00,,,0.00,Wunderground v.1.15,2013-02-13 17:10:00,
2013-02-13 09:15:00,50.1,46.7,30.29,East,100,1.0,7.0,88,0.00,,,0.00,Wunderground v.1.15,2013-02-13 17:15:00,
2013-02-13 09:25:00,50.3,46.3,30.30,SW,226,2.0,7.0,86,0.00,,,0.00,Wunderground v.1.15,2013-02-13 17:25:00,
2013-02-13 09:30:00,50.2,46.2,30.30,SW,217,3.0,3.0,86,0.00,,,0.00,Wunderground v.1.15,2013-02-13 17:30:00,
2013-02-13 09:35:00,50.3,46.0,30.30,SW,221,2.0,7.0,85,0.00,,,0.00,Wunderground v.1.15,2013-02-13 17:35:00,
2013-02-13 09:40:00,50.4,46.4,30.30,SSW,195,2.0,2.0,86,0.00,,,0.00,Wunderground v.1.15,2013-02-13 17:40:00,
2013-02-13 09:45:00,50.6,45.9,30.30,WSW,254,2.0,7.0,84,0.00,,,0.00,Wunderground v.1.15,2013-02-13 17:45:00,
2013-02-13 09:55:00,50.6,46.3,30.30,WSW,247,2.0,7.0,85,0.00,,,0.00,Wunderground v.1.15,2013-02-13 17:55:00,
2013-02-13 10:00:00,50.6,46.3,30.30,WSW,248,2.0,7.0,85,0.00,,,0.00,Wunderground v.1.15,2013-02-13 18:00:00,
2013-02-13 10:05:00,50.6,45.9,30.30,WSW,243,3.0,7.0,84,0.00,,,0.00,Wunderground v.1.15,2013-02-13 18:05:00,
2013-02-13 10:10:00,50.6,45.9,30.30,SSW,213,3.0,7.0,84,0.00,,,0.00,Wunderground v.1.15,2013-02-13 18:10:00,
2013-02-13 10:15:00,51.0,46.3,30.30,WSW,245,3.0,7.0,84,0.00,,,0.00,Wunderground v.1.15,2013-02-13 18:15:00,
2013-02-13 10:20:00,51.4,46.4,30.30,SW,234,3.0,7.0,83,0.00,,,0.00,Wunderground v.1.15,2013-02-13 18:20:00,
2013-02-13 10:25:00,51.7,46.4,30.30,SSW,192,3.0,7.0,82,0.00,,,0.00,Wunderground v.1.15,2013-02-13 18:25:00,
2013-02-13 10:30:00,52.5,47.2,30.30,SSW,204,3.0,3.0,82,0.00,,,0.00,Wunderground v.1.15,2013-02-13 18:30:00,
2013-02-13 10:35:00,52.9,46.9,30.30,SW,233,3.0,4.0,80,0.00,,,0.00,Wunderground v.1.15,2013-02-13 18:35:00,
2013-02-13 10:40:00,53.3,47.3,30.31,SW,216,3.0,3.0,80,0.00,,,0.00,Wunderground v.1.15,2013-02-13 18:40:00,
2013-02-13 10:45:00,54.1,47.7,30.30,SSW,203,2.0,7.0,79,0.00,,,0.00,Wunderground v.1.15,2013-02-13 18:45:00,
2013-02-13 10:50:00,54.7,47.6,30.30,South,179,3.0,7.0,77,0.00,,,0.00,Wunderground v.1.15,2013-02-13 18:50:00,
2013-02-13 11:00:00,54.6,46.8,30.30,SW,218,3.0,7.0,75,0.00,,,0.00,Wunderground v.1.15,2013-02-13 19:00:00,
2013-02-13 11:05:00,54.8,47.4,30.30,South,176,4.0,7.0,76,0.00,,,0.00,Wunderground v.1.15,2013-02-13 19:05:00,
2013-02-13 11:10:00,55.3,47.2,30.30,SSE,161,3.0,7.0,74,0.00,,,0.00,Wunderground v.1.15,2013-02-13 19:10:00,
2013-02-13 11:15:00,55.5,47.0,30.30,WSW,246,3.0,7.0,73,0.00,,,0.00,Wunderground v.1.15,2013-02-13 19:15:00,
2013-02-13 11:20:00,55.4,47.2,30.29,SSW,194,3.0,7.0,74,0.00,,,0.00,Wunderground v.1.15,2013-02-13 19:20:00,
2013-02-13 11:25:00,55.9,47.0,30.29,South,178,3.0,7.0,72,0.00,,,0.00,Wunderground v.1.15,2013-02-13 19:25:00,
2013-02-13 11:30:00,56.6,47.7,30.29,South,182,3.0,3.0,72,0.00,,,0.00,Wunderground v.1.15,2013-02-13 19:30:00,
2013-02-13 11:35:00,57.5,47.8,30.28,SW,235,3.0,7.0,70,0.00,,,0.00,Wunderground v.1.15,2013-02-13 19:35:00,
2013-02-13 11:40:00,58.2,48.1,30.28,SW,221,3.0,3.0,69,0.00,,,0.00,Wunderground v.1.15,2013-02-13 19:40:00,
2013-02-13 11:45:00,58.4,47.5,30.28,WSW,237,3.0,4.0,67,0.00,,,0.00,Wunderground v.1.15,2013-02-13 19:45:00,
2013-02-13 11:50:00,57.8,47.3,30.28,WSW,245,4.0,4.0,68,0.00,,,0.00,Wunderground v.1.15,2013-02-13 19:50:00,
2013-02-13 12:00:00,57.7,48.0,30.27,WSW,241,5.0,7.0,70,0.00,,,0.00,Wunderground v.1.15,2013-02-13 20:00:00,
2013-02-13 12:05:00,57.4,48.1,30.27,SW,236,4.0,7.0,71,0.00,,,0.00,Wunderground v.1.15,2013-02-13 20:05:00,
2013-02-13 12:10:00,57.2,47.9,30.27,SW,215,4.0,7.0,71,0.00,,,0.00,Wunderground v.1.15,2013-02-13 20:10:00,
2013-02-13 12:15:00,57.3,48.3,30.27,SSE,157,4.0,7.0,72,0.00,,,0.00,Wunderground v.1.15,2013-02-13 20:15:00,
2013-02-13 12:20:00,57.6,48.3,30.26,West,271,3.0,7.0,71,0.00,,,0.00,Wunderground v.1.15,2013-02-13 20:20:00,
2013-02-13 12:30:00,57.8,48.5,30.26,South,169,3.0,3.0,71,0.00,,,0.00,Wunderground v.1.15,2013-02-13 20:30:00,
2013-02-13 12:35:00,58.8,49.0,30.26,South,172,3.0,7.0,70,0.00,,,0.00,Wunderground v.1.15,2013-02-13 20:35:00,
2013-02-13 12:40:00,59.4,48.8,30.26,WSW,253,3.0,7.0,68,0.00,,,0.00,Wunderground v.1.15,2013-02-13 20:40:00,
2013-02-13 12:45:00,59.3,48.3,30.25,West,267,3.0,7.0,67,0.00,,,0.00,Wunderground v.1.15,2013-02-13 20:45:00,
2013-02-13 12:50:00,59.5,48.9,30.25,West,271,3.0,3.0,68,0.00,,,0.00,Wunderground v.1.15,2013-02-13 20:50:00,
2013-02-13 12:55:00,60.0,49.0,30.25,SSE,153,2.0,7.0,67,0.00,,,0.00,Wunderground v.1.15,2013-02-13 20:55:00,
2013-02-13 13:05:00,60.2,48.4,30.25,South,190,4.0,4.0,65,0.00,,,0.00,Wunderground v.1.15,2013-02-13 21:05:00,
2013-02-13 13:10:00,60.5,48.7,30.24,SW,231,5.0,7.0,65,0.00,,,0.00,Wunderground v.1.15,2013-02-13 21:10:00,
2013-02-13 13:15:00,60.3,48.9,30.24,SSW,195,5.0,7.0,66,0.00,,,0.00,Wunderground v.1.15,2013-02-13 21:15:00,
2013-02-13 13:20:00,60.7,48.4,30.24,SW,235,4.0,4.0,64,0.00,,,0.00,Wunderground v.1.15,2013-02-13 21:20:00,
2013-02-13 13:25:00,60.4,48.2,30.24,WSW,238,4.0,5.0,64,0.00,,,0.00,Wunderground v.1.15,2013-02-13 21:25:00,
2013-02-13 13:30:00,60.1,48.3,30.23,SW,221,5.0,7.0,65,0.00,,,0.00,Wunderground v.1.15,2013-02-13 21:30:00,
2013-02-13 13:35:00,60.3,48.9,30.23,South,183,5.0,7.0,66,0.00,,,0.00,Wunderground v.1.15,2013-02-13 21:35:00,
2013-02-13 13:40:00,61.3,49.0,30.23,SW,218,4.0,7.0,64,0.00,,,0.00,Wunderground v.1.15,2013-02-13 21:40:00,
2013-02-13 13:45:00,61.5,48.8,30.22,WSW,239,4.0,7.0,63,0.00,,,0.00,Wunderground v.1.15,2013-02-13 21:45:00,
2013-02-13 13:50:00,61.3,47.7,30.22,SW,219,5.0,7.0,61,0.00,,,0.00,Wunderground v.1.15,2013-02-13 21:50:00,
2013-02-13 13:55:00,61.3,48.2,30.22,SSW,198,6.0,7.0,62,0.00,,,0.00,Wunderground v.1.15,2013-02-13 21:55:00,
2013-02-13 14:05:00,62.0,47.5,30.22,NW,322,5.0,7.0,59,0.00,,,0.00,Wunderground v.1.15,2013-02-13 22:05:00,
2013-02-13 14:10:00,62.1,47.1,30.22,SW,226,4.0,4.0,58,0.00,,,0.00,Wunderground v.1.15,2013-02-13 22:10:00,
2013-02-13 14:15:00,61.5,46.1,30.22,SSW,193,4.0,6.0,57,0.00,,,0.00,Wunderground v.1.15,2013-02-13 22:15:00,
2013-02-13 14:20:00,61.5,46.6,30.21,WSW,255,5.0,5.0,58,0.00,,,0.00,Wunderground v.1.15,2013-02-13 22:20:00,
2013-02-13 14:25:00,61.4,46.9,30.21,SSW,212,5.0,7.0,59,0.00,,,0.00,Wunderground v.1.15,2013-02-13 22:25:00,
2013-02-13 14:30:00,61.8,47.3,30.21,SW,227,4.0,7.0,59,0.00,,,0.00,Wunderground v.1.15,2013-02-13 22:30:00,
2013-02-13 14:35:00,61.7,47.2,30.21,South,189,4.0,7.0,59,0.00,,,0.00,Wunderground v.1.15,2013-02-13 22:35:00,
2013-02-13 14:40:00,61.7,47.7,30.21,WSW,252,4.0,4.0,60,0.00,,,0.00,Wunderground v.1.15,2013-02-13 22:40:00,
2013-02-13 14:45:00,61.7,47.2,30.21,SW,224,4.0,5.0,59,0.00,,,0.00,Wunderground v.1.15,2013-02-13 22:45:00,
2013-02-13 14:50:00,61.7,45.8,30.21,SW,233,5.0,7.0,56,0.00,,,0.00,Wunderground v.1.15,2013-02-13 22:50:00,
2013-02-13 14:55:00,61.8,45.9,30.21,NW,319,5.0,7.0,56,0.00,,,0.00,Wunderground v.1.15,2013-02-13 22:55:00,
2013-02-13 15:00:00,62.1,45.2,30.21,SW,228,5.0,7.0,54,0.00,,,0.00,Wunderground v.1.15,2013-02-13 23:00:00,
2013-02-13 15:10:00,61.0,44.7,30.20,SW,225,6.0,6.0,55,0.00,,,0.00,Wunderground v.1.15,2013-02-13 23:10:00,
2013-02-13 15:15:00,61.8,45.0,30.20,South,191,4.0,7.0,54,0.00,,,0.00,Wunderground v.1.15,2013-02-13 23:15:00,
2013-02-13 15:25:00,61.8,44.5,30.20,WSW,255,4.0,4.0,53,0.00,,,0.00,Wunderground v.1.15,2013-02-13 23:25:00,
2013-02-13 15:30:00,61.5,43.7,30.20,WSW,240,4.0,4.0,52,0.00,,,0.00,Wunderground v.1.15,2013-02-13 23:30:00,
2013-02-13 15:35:00,61.4,44.1,30.20,SW,219,4.0,7.0,53,0.00,,,0.00,Wunderground v.1.15,2013-02-13 23:35:00,
2013-02-13 15:45:00,61.4,43.6,30.20,WSW,246,3.0,7.0,52,0.00,,,0.00,Wunderground v.1.15,2013-02-13 23:45:00,
2013-02-13 15:50:00,61.6,44.3,30.20,SW,229,3.0,7.0,53,0.00,,,0.00,Wunderground v.1.15,2013-02-13 23:50:00,
2013-02-13 16:00:00,61.4,45.1,30.20,West,266,3.0,3.0,55,0.00,,,0.00,Wunderground v.1.15,2013-02-14 00:00:00,
2013-02-13 16:05:00,61.7,45.8,30.20,West,274,3.0,3.0,56,0.00,,,0.00,Wunderground v.1.15,2013-02-14 00:05:00,
2013-02-13 16:10:00,62.0,45.6,30.19,NW,311,2.0,3.0,55,0.00,,,0.00,Wunderground v.1.15,2013-02-14 00:10:00,
2013-02-13 16:15:00,62.1,45.7,30.19,SSW,207,2.0,4.0,55,0.00,,,0.00,Wunderground v.1.15,2013-02-14 00:15:00,
2013-02-13 16:20:00,61.5,46.6,30.19,South,188,3.0,3.0,58,0.00,,,0.00,Wunderground v.1.15,2013-02-14 00:20:00,
2013-02-13 16:25:00,61.5,47.0,30.19,WSW,248,3.0,3.0,59,0.00,,,0.00,Wunderground v.1.15,2013-02-14 00:25:00,
2013-02-13 16:30:00,61.6,47.1,30.19,West,259,2.0,2.0,59,0.00,,,0.00,Wunderground v.1.15,2013-02-14 00:30:00,
2013-02-13 16:35:00,61.6,46.7,30.19,WSW,256,2.0,4.0,58,0.00,,,0.00,Wunderground v.1.15,2013-02-14 00:35:00,
2013-02-13 16:45:00,61.5,47.0,30.19,NW,309,3.0,4.0,59,0.00,,,0.00,Wunderground v.1.15,2013-02-14 00:45:00,
2013-02-13 16:50:00,61.5,47.0,30.19,NW,304,3.0,3.0,59,0.00,,,0.00,Wunderground v.1.15,2013-02-14 00:50:00,
2013-02-13 16:55:00,61.5,47.5,30.19,West,274,2.0,5.0,60,0.00,,,0.00,Wunderground v.1.15,2013-02-14 00:55:00,
2013-02-13 17:00:00,61.5,47.0,30.19,WNW,283,2.0,5.0,59,0.00,,,0.00,Wunderground v.1.15,2013-02-14 01:00:00,
2013-02-13 17:05:00,61.4,46.5,30.19,NW,304,2.0,5.0,58,0.00,,,0.00,Wunderground v.1.15,2013-02-14 01:05:00,
2013-02-13 17:15:00,60.9,46.0,30.18,WSW,237,3.0,5.0,58,0.00,,,0.00,Wunderground v.1.15,2013-02-14 01:15:00,
2013-02-13 17:20:00,59.8,46.3,30.19,SW,221,4.0,5.0,61,0.00,,,0.00,Wunderground v.1.15,2013-02-14 01:20:00,
2013-02-13 17:25:00,58.8,46.2,30.19,SW,233,4.0,5.0,63,0.00,,,0.00,Wunderground v.1.15,2013-02-14 01:25:00,
2013-02-13 17:30:00,58.2,45.2,30.19,West,269,4.0,4.0,62,0.00,,,0.00,Wunderground v.1.15,2013-02-14 01:30:00,
2013-02-13 17:35:00,57.9,44.5,30.18,WNW,302,2.0,5.0,61,0.00,,,0.00,Wunderground v.1.15,2013-02-14 01:35:00,
2013-02-13 17:45:00,57.2,43.4,30.18,SW,233,2.0,5.0,60,0.00,,,0.00,Wunderground v.1.15,2013-02-14 01:45:00,
2013-02-13 17:50:00,56.8,43.1,30.18,SW,233,1.0,1.0,60,0.00,,,0.00,Wunderground v.1.15,2013-02-14 01:50:00,
2013-02-13 17:55:00,56.2,42.5,30.18,SW,233,0.0,5.0,60,0.00,,,0.00,Wunderground v.1.15,2013-02-14 01:55:00,
2013-02-13 18:05:00,55.4,43.4,30.18,SW,233,0.0,5.0,64,0.00,,,0.00,Wunderground v.1.15,2013-02-14 02:05:00,
2013-02-13 18:10:00,55.0,43.0,30.18,SW,233,0.0,5.0,64,0.00,,,0.00,Wunderground v.1.15,2013-02-14 02:10:00,
2013-02-13 18:20:00,54.0,42.1,30.18,SW,233,0.0,5.0,64,0.00,,,0.00,Wunderground v.1.15,2013-02-14 02:20:00,
2013-02-13 18:25:00,53.5,42.0,30.18,SW,233,0.0,5.0,65,0.00,,,0.00,Wunderground v.1.15,2013-02-14 02:25:00,
2013-02-13 18:30:00,52.9,41.8,30.18,SW,233,0.0,5.0,66,0.00,,,0.00,Wunderground v.1.15,2013-02-14 02:30:00,
2013-02-13 18:35:00,52.3,41.3,30.18,SW,233,0.0,5.0,66,0.00,,,0.00,Wunderground v.1.15,2013-02-14 02:35:00,
2013-02-13 18:40:00,51.8,41.2,30.18,SW,233,0.0,5.0,67,0.00,,,0.00,Wunderground v.1.15,2013-02-14 02:40:00,
2013-02-13 18:50:00,50.8,41.0,30.18,SW,233,0.0,5.0,69,0.00,,,0.00,Wunderground v.1.15,2013-02-14 02:50:00,
2013-02-13 18:55:00,50.3,40.5,30.18,SW,233,0.0,5.0,69,0.00,,,0.00,Wunderground v.1.15,2013-02-14 02:55:00,
2013-02-13 19:00:00,49.8,40.0,30.18,SW,220,0.0,5.0,69,0.00,,,0.00,Wunderground v.1.15,2013-02-14 03:00:00,
2013-02-13 19:05:00,49.4,40.0,30.18,SW,219,0.0,5.0,70,0.00,,,0.00,Wunderground v.1.15,2013-02-14 03:05:00,
2013-02-13 19:10:00,49.0,39.6,30.18,SW,219,0.0,5.0,70,0.00,,,0.00,Wunderground v.1.15,2013-02-14 03:10:00,
2013-02-13 19:20:00,48.4,39.4,30.18,SW,220,0.0,5.0,71,0.00,,,0.00,Wunderground v.1.15,2013-02-14 03:20:00,
2013-02-13 19:25:00,48.1,39.1,30.18,SW,220,0.0,5.0,71,0.00,,,0.00,Wunderground v.1.15,2013-02-14 03:25:00,
2013-02-13 19:30:00,47.8,39.2,30.18,SW,219,0.0,5.0,72,0.00,,,0.00,Wunderground v.1.15,2013-02-14 03:30:00,
2013-02-13 19:35:00,47.5,39.3,30.18,SSW,203,0.0,5.0,73,0.00,,,0.00,Wunderground v.1.15,2013-02-14 03:35:00,
2013-02-13 19:40:00,47.2,39.3,30.18,SSW,202,0.0,5.0,74,0.00,,,0.00,Wunderground v.1.15,2013-02-14 03:40:00,
2013-02-13 19:50:00,46.9,39.0,30.18,SSW,203,0.0,5.0,74,0.00,,,0.00,Wunderground v.1.15,2013-02-14 03:50:00,
2013-02-13 19:55:00,46.7,38.9,30.18,SSW,203,0.0,5.0,74,0.00,,,0.00,Wunderground v.1.15,2013-02-14 03:55:00,
2013-02-13 20:00:00,46.4,38.6,30.19,SSW,202,0.0,5.0,74,0.00,,,0.00,Wunderground v.1.15,2013-02-14 04:00:00,
2013-02-13 20:05:00,46.3,38.8,30.18,SSW,202,0.0,5.0,75,0.00,,,0.00,Wunderground v.1.15,2013-02-14 04:05:00,
2013-02-13 20:10:00,46.1,38.6,30.18,SSW,203,0.0,5.0,75,0.00,,,0.00,Wunderground v.1.15,2013-02-14 04:10:00,
2013-02-13 20:15:00,46.0,38.2,30.18,SSW,202,0.0,5.0,74,0.00,,,0.00,Wunderground v.1.15,2013-02-14 04:15:00,
2013-02-13 20:20:00,45.8,38.0,30.18,SSW,196,0.0,5.0,74,0.00,,,0.00,Wunderground v.1.15,2013-02-14 04:20:00,
2013-02-13 20:25:00,45.7,38.2,30.19,SSW,196,0.0,5.0,75,0.00,,,0.00,Wunderground v.1.15,2013-02-14 04:25:00,
2013-02-13 20:30:00,45.5,38.0,30.19,South,188,0.0,5.0,75,0.00,,,0.00,Wunderground v.1.15,2013-02-14 04:30:00,
2013-02-13 20:35:00,45.3,37.8,30.19,South,188,0.0,5.0,75,0.00,,,0.00,Wunderground v.1.15,2013-02-14 04:35:00,
2013-02-13 20:40:00,45.2,37.7,30.19,South,188,0.0,5.0,75,0.00,,,0.00,Wunderground v.1.15,2013-02-14 04:40:00,
2013-02-13 20:45:00,45.1,37.6,30.19,South,188,0.0,5.0,75,0.00,,,0.00,Wunderground v.1.15,2013-02-14 04:45:00,
2013-02-13 20:55:00,44.9,37.8,30.19,South,188,0.0,5.0,76,0.00,,,0.00,Wunderground v.1.15,2013-02-14 04:55:00,
2013-02-13 21:00:00,44.8,37.7,30.19,South,188,0.0,5.0,76,0.00,,,0.00,Wunderground v.1.15,2013-02-14 05:00:00,
2013-02-13 21:05:00,44.7,37.6,30.19,South,188,0.0,5.0,76,0.00,,,0.00,Wunderground v.1.15,2013-02-14 05:05:00,
2013-02-13 21:10:00,44.7,37.6,30.19,South,188,0.0,5.0,76,0.00,,,0.00,Wunderground v.1.15,2013-02-14 05:10:00,
2013-02-13 21:15:00,44.6,37.5,30.19,South,188,0.0,5.0,76,0.00,,,0.00,Wunderground v.1.15,2013-02-14 05:15:00,
2013-02-13 21:20:00,44.5,37.4,30.19,South,188,0.0,5.0,76,0.00,,,0.00,Wunderground v.1.15,2013-02-14 05:20:00,
2013-02-13 21:25:00,44.5,37.4,30.19,South,188,0.0,5.0,76,0.00,,,0.00,Wunderground v.1.15,2013-02-14 05:25:00,
2013-02-13 21:30:00,44.4,37.6,30.19,South,188,0.0,5.0,77,0.00,,,0.00,Wunderground v.1.15,2013-02-14 05:30:00,
2013-02-13 21:35:00,44.3,37.5,30.19,South,188,0.0,5.0,77,0.00,,,0.00,Wunderground v.1.15,2013-02-14 05:35:00,
2013-02-13 21:40:00,44.2,37.8,30.19,South,188,0.0,5.0,78,0.00,,,0.00,Wunderground v.1.15,2013-02-14 05:40:00,
2013-02-13 21:45:00,44.2,37.4,30.19,South,188,0.0,5.0,77,0.00,,,0.00,Wunderground v.1.15,2013-02-14 05:45:00,
2013-02-13 21:55:00,44.0,37.6,30.19,South,188,0.0,5.0,78,0.00,,,0.00,Wunderground v.1.15,2013-02-14 05:55:00,
2013-02-13 22:00:00,43.9,37.5,30.19,South,188,0.0,5.0,78,0.00,,,0.00,Wunderground v.1.15,2013-02-14 06:00:00,
2013-02-13 22:05:00,43.7,37.3,30.19,South,188,0.0,5.0,78,0.00,,,0.00,Wunderground v.1.15,2013-02-14 06:05:00,
2013-02-13 22:10:00,43.6,37.5,30.19,South,188,0.0,5.0,79,0.00,,,0.00,Wunderground v.1.15,2013-02-14 06:10:00,
2013-02-13 22:15:00,43.6,37.5,30.19,South,188,0.0,5.0,79,0.00,,,0.00,Wunderground v.1.15,2013-02-14 06:15:00,
2013-02-13 22:20:00,43.5,37.7,30.19,South,188,0.0,5.0,80,0.00,,,0.00,Wunderground v.1.15,2013-02-14 06:20:00,
2013-02-13 22:25:00,43.4,37.6,30.19,South,188,0.0,5.0,80,0.00,,,0.00,Wunderground v.1.15,2013-02-14 06:25:00,
2013-02-13 22:30:00,43.3,37.9,30.19,South,188,0.0,5.0,81,0.00,,,0.00,Wunderground v.1.15,2013-02-14 06:30:00,
2013-02-13 22:35:00,43.2,37.4,30.19,South,188,0.0,5.0,80,0.00,,,0.00,Wunderground v.1.15,2013-02-14 06:35:00,
2013-02-13 22:40:00,43.1,37.7,30.19,South,188,0.0,5.0,81,0.00,,,0.00,Wunderground v.1.15,2013-02-14 06:40:00,
2013-02-13 22:45:00,43.0,37.6,30.19,South,188,0.0,5.0,81,0.00,,,0.00,Wunderground v.1.15,2013-02-14 06:45:00,
2013-02-13 22:50:00,43.0,37.9,30.19,South,188,0.0,5.0,82,0.00,,,0.00,Wunderground v.1.15,2013-02-14 06:50:00,
2013-02-13 23:00:00,42.9,37.8,30.19,South,188,0.0,5.0,82,0.00,,,0.00,Wunderground v.1.15,2013-02-14 07:00:00,
2013-02-13 23:05:00,42.7,37.6,30.19,South,188,0.0,5.0,82,0.00,,,0.00,Wunderground v.1.15,2013-02-14 07:05:00,
2013-02-13 23:10:00,42.7,37.9,30.19,South,188,0.0,5.0,83,0.00,,,0.00,Wunderground v.1.15,2013-02-14 07:10:00,
2013-02-13 23:15:00,42.7,37.9,30.19,South,188,0.0,5.0,83,0.00,,,0.00,Wunderground v.1.15,2013-02-14 07:15:00,
2013-02-13 23:20:00,42.6,37.8,30.19,South,188,0.0,5.0,83,0.00,,,0.00,Wunderground v.1.15,2013-02-14 07:20:00,
2013-02-13 23:25:00,42.5,37.7,30.19,South,182,0.0,5.0,83,0.00,,,0.00,Wunderground v.1.15,2013-02-14 07:25:00,
2013-02-13 23:30:00,42.5,37.7,30.19,South,182,0.0,5.0,83,0.00,,,0.00,Wunderground v.1.15,2013-02-14 07:30:00,
2013-02-13 23:35:00,42.4,37.6,30.19,South,182,0.0,5.0,83,0.00,,,0.00,Wunderground v.1.15,2013-02-14 07:35:00,
2013-02-13 23:40:00,42.5,37.7,30.18,South,182,0.0,5.0,83,0.00,,,0.00,Wunderground v.1.15,2013-02-14 07:40:00,
2013-02-13 23:45:00,42.5,37.7,30.18,South,182,0.0,5.0,83,0.00,,,0.00,Wunderground v.1.15,2013-02-14 07:45:00,
2013-02-13 23:50:00,42.4,37.6,30.18,South,182,0.0,5.0,83,0.00,,,0.00,Wunderground v.1.15,2013-02-14 07:50:00,